Time;durP1;ratioP1;P1;durP2;ratioP2;P2;SDS_P1;SDS_P2;PMS_P1;PMS_P2;Temp;Humidity;BMP_temperature;BMP_pressure;BME280_temperature;BME280_humidity;BME280_pressure;Samples;Min_cycle;Max_cycle;Signal;HPM_P1;HPM_P2
2023/10/02 00:00:39;;;;;;;12.27;5.57;;;18.40;99.90;;;;;;6113233;23;20262;-84
2023/10/02 00:03:10;;;;;;;14.53;6.43;;;18.40;99.90;;;;;;6063914;23;20196;-84
2023/10/02 00:05:51;;;;;;;16.23;6.57;;;18.40;99.90;;;;;;6078928;23;20666;-84
2023/10/02 00:09:04;;;;;;;13.20;6.47;;;18.40;99.90;;;;;;6016960;23;20200;-84
2023/10/02 00:11:41;;;;;;;11.77;6.27;;;18.40;99.90;;;;;;6101142;23;20787;-84
2023/10/02 00:17:08;;;;;;;11.37;5.77;;;18.40;99.90;;;;;;6114930;23;20203;-84
2023/10/02 00:19:57;;;;;;;15.90;6.97;;;18.40;99.90;;;;;;6096722;23;20686;-86
2023/10/02 00:23:01;;;;;;;15.97;6.83;;;18.40;99.90;;;;;;6097667;23;20192;-84
2023/10/02 00:25:39;;;;;;;;;;;;;;;;;;;;;
2023/10/02 00:28:30;;;;;;;13.17;6.80;;;18.40;99.90;;;;;;6049383;23;20257;-84
2023/10/02 00:31:32;;;;;;;12.57;6.70;;;18.40;99.90;;;;;;6097290;23;20762;-88
2023/10/02 00:34:12;;;;;;;;;;;;;;;;;;;;;
2023/10/02 00:37:01;;;;;;;11.30;6.40;;;18.40;99.90;;;;;;6121231;23;20209;-86
2023/10/02 00:39:35;;;;;;;11.13;6.07;;;18.40;99.90;;;;;;6117649;23;20631;-85
2023/10/02 00:50:50;;;;;;;11.00;5.53;;;18.20;99.90;;;;;;6129804;23;20166;-84
2023/10/02 00:53:37;;;;;;;18.70;7.00;;;18.10;99.90;;;;;;6143588;23;20163;-84
2023/10/02 00:56:38;;;;;;;11.90;7.20;;;18.10;99.90;;;;;;6099286;23;20623;-87
2023/10/02 00:59:15;;;;;;;12.43;6.73;;;18.00;99.90;;;;;;6076317;23;20277;-87
2023/10/02 01:02:05;;;;;;;14.70;6.93;;;18.00;99.90;;;;;;6079429;23;20728;-84
2023/10/02 01:04:56;;;;;;;12.07;6.27;;;17.90;99.90;;;;;;6119049;23;20222;-83
2023/10/02 01:07:53;;;;;;;15.83;5.43;;;17.90;99.90;;;;;;6105660;23;20203;-84
2023/10/02 01:10:32;;;;;;;14.93;6.77;;;17.90;99.90;;;;;;6095932;23;20313;-87
2023/10/02 01:13:07;;;;;;;18.67;6.77;;;17.90;99.90;;;;;;6071724;23;20528;-87
2023/10/02 01:15:33;;;;;;;9.67;6.07;;;17.90;99.90;;;;;;6128375;23;20269;-83
2023/10/02 01:20:56;;;;;;;13.73;6.50;;;17.80;99.90;;;;;;6143978;23;20155;-86
2023/10/02 01:24:16;;;;;;;15.97;7.07;;;17.80;99.90;;;;;;6119157;23;20159;-86
2023/10/02 01:27:03;;;;;;;13.07;5.93;;;17.80;99.90;;;;;;6143633;23;20206;-84
2023/10/02 01:29:42;;;;;;;13.60;5.60;;;17.80;99.90;;;;;;6118778;23;20187;-85
2023/10/02 01:32:17;;;;;;;20.00;6.53;;;17.80;99.90;;;;;;6116992;23;20215;-86
2023/10/02 01:34:57;;;;;;;9.90;6.20;;;17.90;99.90;;;;;;6123998;23;20211;-84
2023/10/02 01:37:35;;;;;;;11.80;4.87;;;17.90;99.90;;;;;;6077893;23;20667;-84
2023/10/02 01:43:13;;;;;;;11.43;5.53;;;17.80;99.90;;;;;;6124962;23;20206;-85
2023/10/02 01:46:17;;;;;;;10.93;6.67;;;17.80;99.90;;;;;;6115209;23;20285;-85
2023/10/02 01:48:52;;;;;;;14.13;6.90;;;17.70;99.90;;;;;;6118470;23;20210;-84
2023/10/02 01:51:31;;;;;;;10.60;6.30;;;17.70;99.90;;;;;;6107639;23;20195;-84
2023/10/02 01:54:04;;;;;;;12.07;6.43;;;17.80;99.90;;;;;;6104781;23;20170;-85
2023/10/02 01:57:24;;;;;;;13.80;6.17;;;17.80;99.90;;;;;;6120768;23;20156;-85
2023/10/02 02:00:13;;;;;;;16.67;7.03;;;17.80;99.90;;;;;;6074690;23;20235;-84
2023/10/02 02:02:41;;;;;;;8.23;5.47;;;17.80;99.90;;;;;;6122682;23;20591;-87
2023/10/02 02:05:16;;;;;;;11.67;6.23;;;17.90;99.90;;;;;;6119919;23;20207;-84
2023/10/02 02:10:51;;;;;;;13.80;6.60;;;17.90;99.90;;;;;;6110623;23;20203;-86
2023/10/02 02:13:47;;;;;;;18.00;7.13;;;17.80;99.90;;;;;;6096961;23;20199;-85
2023/10/02 02:19:35;;;;;;;12.63;6.33;;;17.90;99.90;;;;;;6114251;23;20255;-85
2023/10/02 02:22:17;;;;;;;17.80;7.70;;;17.90;99.90;;;;;;6117837;23;20237;-88
2023/10/02 02:24:44;;;;;;;14.40;6.67;;;17.90;99.90;;;;;;6119450;23;20187;-84
2023/10/02 02:27:36;;;;;;;23.77;7.40;;;17.90;99.90;;;;;;6129937;23;20290;-84
2023/10/02 02:30:21;;;;;;;12.90;6.30;;;17.90;99.90;;;;;;6073972;23;20210;-84
2023/10/02 02:33:40;;;;;;;16.53;7.20;;;17.90;99.90;;;;;;6120691;23;20203;-84
2023/10/02 02:36:41;;;;;;;14.43;7.80;;;17.80;99.90;;;;;;6144721;23;20210;-84
2023/10/02 02:39:16;;;;;;;11.90;7.90;;;17.80;99.90;;;;;;6118058;23;20203;-84
2023/10/02 02:44:43;;;;;;;23.17;8.23;;;17.70;99.90;;;;;;6099355;23;20430;-84
2023/10/02 02:47:51;;;;;;;15.30;8.57;;;17.60;99.90;;;;;;6120061;23;20242;-85
2023/10/02 02:50:32;;;;;;;19.33;7.53;;;17.50;99.90;;;;;;6145379;23;20211;-84
2023/10/02 02:53:23;;;;;;;17.80;8.23;;;17.40;99.90;;;;;;6103860;23;20199;-84
2023/10/02 02:56:22;;;;;;;20.90;9.20;;;17.40;99.90;;;;;;6124649;23;20199;-87
2023/10/02 02:59:12;;;;;;;21.13;8.33;;;17.40;99.90;;;;;;6121501;23;20654;-84
2023/10/02 03:01:49;;;;;;;17.03;9.13;;;17.40;99.90;;;;;;6102762;23;20202;-84
2023/10/02 03:04:18;;;;;;;21.70;11.53;;;17.30;99.90;;;;;;6126610;23;20207;-86
2023/10/02 03:06:44;;;;;;;18.03;9.70;;;17.30;99.90;;;;;;6119335;23;20206;-85
2023/10/02 03:09:34;;;;;;;21.07;10.23;;;17.30;99.90;;;;;;6105684;23;20261;-84
2023/10/02 03:12:03;;;;;;;24.23;10.93;;;17.40;99.90;;;;;;6118019;23;20155;-85
2023/10/02 03:14:36;;;;;;;24.03;10.63;;;17.50;99.90;;;;;;6118619;23;20599;-84
2023/10/02 03:17:28;;;;;;;20.93;10.23;;;17.50;99.90;;;;;;6106863;23;20191;-84
2023/10/02 03:20:21;;;;;;;20.07;12.00;;;17.50;99.90;;;;;;6119271;23;20227;-84
2023/10/02 03:23:18;;;;;;;25.93;11.83;;;17.50;99.90;;;;;;6119107;23;20231;-84
2023/10/02 03:26:37;;;;;;;21.90;11.30;;;17.50;99.90;;;;;;6118686;23;20229;-84
2023/10/02 03:29:21;;;;;;;26.30;11.27;;;17.50;99.90;;;;;;6074305;23;20217;-83
2023/10/02 03:31:49;;;;;;;28.27;11.97;;;17.50;99.90;;;;;;6118086;23;20214;-84
2023/10/02 03:34:27;;;;;;;21.73;11.77;;;17.50;99.90;;;;;;6118697;23;20218;-84
2023/10/02 03:37:21;;;;;;;22.27;11.70;;;17.50;99.90;;;;;;6119010;23;20187;-87
2023/10/02 03:42:31;;;;;;;27.00;13.50;;;17.60;99.90;;;;;;6104284;23;20194;-84
2023/10/02 03:45:08;;;;;;;21.37;10.87;;;17.60;99.90;;;;;;6118459;23;20159;-84
2023/10/02 03:47:37;;;;;;;23.13;11.13;;;17.50;99.90;;;;;;6119458;23;20151;-87
2023/10/02 03:50:36;;;;;;;21.23;12.07;;;17.60;99.90;;;;;;6126619;23;20306;-83
2023/10/02 03:53:12;;;;;;;27.77;14.23;;;17.60;99.90;;;;;;6118569;23;20210;-85
2023/10/02 03:55:59;;;;;;;33.93;11.73;;;17.60;99.90;;;;;;6104967;23;20202;-85
2023/10/02 03:58:46;;;;;;;24.40;11.73;;;17.60;99.90;;;;;;6098926;23;20199;-83
2023/10/02 04:01:28;;;;;;;29.73;12.43;;;17.60;99.90;;;;;;6115696;23;20198;-84
2023/10/02 04:04:24;;;;;;;18.07;9.20;;;17.60;99.90;;;;;;6123678;23;20587;-85
2023/10/02 04:07:33;;;;;;;26.27;11.07;;;17.50;99.90;;;;;;6118654;23;20199;-85
2023/10/02 04:10:08;;;;;;;21.37;11.13;;;17.60;99.90;;;;;;6082606;23;20249;-86
2023/10/02 04:12:53;;;;;;;20.00;11.23;;;17.60;99.90;;;;;;6100774;23;20192;-84
2023/10/02 04:15:33;;;;;;;25.30;12.87;;;17.60;99.90;;;;;;6118528;23;20187;-86
2023/10/02 04:18:45;;;;;;;23.73;11.47;;;17.60;99.90;;;;;;6118238;23;20206;-84
2023/10/02 04:21:27;;;;;;;25.40;12.17;;;17.50;99.90;;;;;;6115062;23;20203;-85
2023/10/02 04:24:25;;;;;;;25.20;12.10;;;17.50;99.90;;;;;;6099107;23;20162;-84
2023/10/02 04:27:08;;;;;;;18.20;10.57;;;17.40;99.90;;;;;;6117054;23;20191;-88
2023/10/02 04:30:24;;;;;;;27.83;10.50;;;17.30;99.90;;;;;;6121169;23;20197;-84
2023/10/02 04:32:51;;;;;;;20.87;12.40;;;17.30;99.90;;;;;;6129146;23;20199;-83
2023/10/02 04:38:47;;;;;;;23.73;10.73;;;17.20;99.90;;;;;;6144540;23;20215;-85
2023/10/02 04:42:05;;;;;;;15.60;9.90;;;17.20;99.90;;;;;;6144395;23;20316;-84
2023/10/02 04:44:24;;;;;;;24.60;12.67;;;17.20;99.90;;;;;;6105289;23;20275;-84
2023/10/02 04:47:09;;;;;;;23.47;12.23;;;17.10;99.90;;;;;;6119233;23;20229;-84
2023/10/02 04:49:59;;;;;;;28.27;11.97;;;17.10;99.90;;;;;;6118045;23;20674;-86
2023/10/02 04:55:44;;;;;;;26.83;12.37;;;17.00;99.90;;;;;;6097912;23;20206;-84
2023/10/02 04:58:19;;;;;;;22.80;10.63;;;17.00;99.90;;;;;;6118176;23;20373;-88
2023/10/02 05:01:19;;;;;;;20.47;11.67;;;17.00;99.90;;;;;;6104974;23;20199;-84
2023/10/02 05:03:51;;;;;;;31.00;12.67;;;17.00;99.90;;;;;;6118282;23;20191;-84
2023/10/02 05:07:15;;;;;;;24.33;12.43;;;16.90;99.90;;;;;;6085232;23;20191;-84
2023/10/02 05:09:53;;;;;;;36.07;13.17;;;16.90;99.90;;;;;;6106742;23;20254;-85
2023/10/02 05:12:28;;;;;;;25.93;12.03;;;16.90;99.90;;;;;;6081062;23;20191;-87
2023/10/02 05:15:00;;;;;;;26.37;13.27;;;16.90;99.90;;;;;;6093498;23;20239;-84
2023/10/02 05:17:50;;;;;;;26.73;11.73;;;16.90;99.90;;;;;;6119585;23;20148;-85
2023/10/02 05:20:38;;;;;;;21.93;9.57;;;16.90;99.90;;;;;;6097326;23;20190;-85
2023/10/02 05:23:56;;;;;;;26.33;12.57;;;16.90;99.90;;;;;;6118235;23;20367;-86
2023/10/02 05:26:38;;;;;;;25.03;12.00;;;16.90;99.90;;;;;;6063314;23;20187;-84
2023/10/02 05:29:36;;;;;;;23.33;14.93;;;16.80;99.90;;;;;;6086482;23;20233;-84
2023/10/02 05:32:24;;;;;;;21.10;10.57;;;16.80;99.90;;;;;;6117327;23;20237;-87
2023/10/02 05:37:46;;;;;;;31.30;14.57;;;16.80;99.90;;;;;;6143660;23;20196;-85
2023/10/02 05:40:42;;;;;;;28.40;15.40;;;16.80;99.90;;;;;;6127525;23;20214;-84
2023/10/02 05:43:12;;;;;;;24.97;12.63;;;16.80;99.90;;;;;;6103480;23;20227;-83
2023/10/02 05:45:50;;;;;;;25.27;11.37;;;16.80;99.90;;;;;;6094526;23;20626;-86
2023/10/02 05:51:08;;;;;;;29.27;14.33;;;16.80;99.90;;;;;;6131147;23;20154;-83
2023/10/02 05:53:37;;;;;;;23.30;13.80;;;16.80;99.90;;;;;;6119192;23;20655;-83
2023/10/02 05:58:41;;;;;;;29.77;14.07;;;16.80;99.90;;;;;;6116539;23;20203;-84
2023/10/02 06:01:26;;;;;;;24.73;13.83;;;16.80;99.90;;;;;;6095468;23;20206;-87
2023/10/02 06:04:14;;;;;;;31.17;14.27;;;16.80;99.90;;;;;;6094106;23;20195;-85
2023/10/02 06:07:01;;;;;;;31.63;13.73;;;16.80;99.90;;;;;;6120093;23;20192;-84
2023/10/02 06:09:43;;;;;;;27.97;12.60;;;16.90;99.90;;;;;;6117349;23;20228;-86
2023/10/02 06:12:27;;;;;;;22.47;13.40;;;16.90;99.90;;;;;;6142964;23;20214;-84
2023/10/02 06:15:08;;;;;;;29.57;14.23;;;17.00;99.90;;;;;;6081611;23;20151;-82
2023/10/02 06:55:03;;;;;;;29.80;13.50;;;17.70;99.90;;;;;;5801176;24;20250;-87
2023/10/02 07:13:29;;;;;;;25.30;12.53;;;18.60;99.90;;;;;;5976192;23;20206;-86
2023/10/02 07:16:05;;;;;;;24.43;11.87;;;18.70;99.90;;;;;;5997485;23;20208;-85
2023/10/02 07:18:58;;;;;;;25.47;12.63;;;18.80;99.90;;;;;;5990047;23;20265;-86
2023/10/02 07:21:42;;;;;;;21.03;11.27;;;19.00;99.90;;;;;;6023508;23;20219;-85
2023/10/02 07:24:40;;;;;;;21.10;10.73;;;18.80;99.90;;;;;;6056051;23;20219;-88
2023/10/02 07:27:40;;;;;;;20.53;11.03;;;18.80;99.90;;;;;;6090135;23;20192;-88
2023/10/02 07:38:30;;;;;;;28.57;12.57;;;18.80;99.90;;;;;;5821597;24;20259;-85
2023/10/02 07:53:22;;;;;;;;;;;;;;;;;;;;;
2023/10/02 08:11:54;;;;;;;20.70;10.23;;;20.10;99.90;;;;;;5745183;24;20243;-84
2023/10/02 08:22:35;;;;;;;21.37;8.77;;;21.40;99.90;;;;;;6055365;23;20206;-86
2023/10/02 08:26:38;;;;;;;17.50;7.63;;;22.10;99.90;;;;;;6081767;23;20204;-85
2023/10/02 08:29:38;;;;;;;17.07;7.80;;;22.00;99.90;;;;;;6047929;23;20204;-86
2023/10/02 08:32:44;;;;;;;12.60;6.23;;;21.60;99.90;;;;;;6045242;23;20195;-90
2023/10/02 08:36:19;;;;;;;;;;;;;;;;;;;;;
2023/10/02 08:39:04;;;;;;;13.60;7.30;;;20.80;99.90;;;;;;6042876;23;20236;-88
2023/10/02 08:42:15;;;;;;;18.43;7.80;;;20.70;99.90;;;;;;6089088;23;20262;-87
2023/10/02 08:49:10;;;;;;;;;;;;;;;;;;;;;
2023/10/02 09:27:30;;;;;;;;;;;;;;;;;;;;;
2023/10/02 09:31:14;;;;;;;19.53;6.37;;;22.00;99.90;;;;;;5780984;24;20210;-88
2023/10/02 09:46:45;;;;;;;;;;;;;;;;;;;;;
2023/10/02 10:02:08;;;;;;;8.23;4.30;;;25.10;99.90;;;;;;5369983;26;20237;-86
2023/10/02 10:09:25;;;;;;;13.00;5.15;;;26.10;99.90;;;;;;5601194;25;20269;-88
2023/10/02 10:16:23;;;;;;;8.35;4.95;;;25.90;99.90;;;;;;5684928;25;20269;-89
2023/10/02 10:20:18;;;;;;;12.35;4.50;;;25.10;99.90;;;;;;5763462;24;20175;-89
2023/10/02 10:23:47;;;;;;;8.77;4.72;;;24.90;99.90;;;;;;5811674;24;20210;-90
2023/10/02 10:27:21;;;;;;;8.82;5.38;;;24.50;99.90;;;;;;5950165;24;20194;-89
2023/10/02 10:34:43;;;;;;;9.65;4.75;;;24.30;99.90;;;;;;6050383;23;20239;-89
2023/10/02 10:37:56;;;;;;;7.40;5.15;;;24.20;99.90;;;;;;6037964;23;20487;-88
2023/10/02 10:40:50;;;;;;;9.55;4.85;;;24.90;99.90;;;;;;6076353;23;20199;-91
2023/10/02 10:43:57;;;;;;;8.15;4.30;;;25.90;99.90;;;;;;6046572;23;20244;-89
2023/10/02 10:46:47;;;;;;;9.70;5.10;;;25.90;99.90;;;;;;6084816;23;20161;-88
2023/10/02 10:50:29;;;;;;;8.68;4.20;;;25.20;99.90;;;;;;5982795;23;20301;-88
2023/10/02 10:54:00;;;;;;;8.50;4.45;;;24.40;99.90;;;;;;5983695;23;20214;-89
2023/10/02 11:03:56;;;;;;;11.02;5.18;;;23.80;99.90;;;;;;6007722;23;20706;-89
2023/10/02 11:06:40;;;;;;;7.97;4.10;;;24.00;99.90;;;;;;6020472;23;20211;-88
2023/10/02 11:09:45;;;;;;;8.48;4.97;;;24.10;99.90;;;;;;6071050;23;20311;-88
2023/10/02 11:12:39;;;;;;;10.98;4.95;;;24.50;99.90;;;;;;6058715;23;20200;-90
2023/10/02 11:18:47;;;;;;;8.57;3.33;;;25.10;99.90;;;;;;6135809;23;20383;-89
2023/10/02 11:21:45;;;;;;;8.10;4.80;;;24.60;99.90;;;;;;6128600;23;20187;-88
2023/10/02 11:24:41;;;;;;;10.00;4.05;;;25.10;99.90;;;;;;6109971;23;20186;-88
2023/10/02 11:27:18;;;;;;;7.75;4.88;;;25.10;99.90;;;;;;6099900;23;20186;-88
2023/10/02 11:30:49;;;;;;;;;;;;;;;;;;;;;
2023/10/02 11:34:00;;;;;;;11.30;4.78;;;25.40;99.90;;;;;;6007188;23;20252;-89
2023/10/02 11:36:46;;;;;;;9.77;4.75;;;25.50;99.90;;;;;;6122522;23;20187;-87
2023/10/02 11:39:43;;;;;;;9.75;4.85;;;25.50;99.90;;;;;;5988930;23;20248;-88
2023/10/02 11:42:27;;;;;;;7.50;4.45;;;25.10;99.90;;;;;;6119924;23;20165;-90
2023/10/02 11:45:47;;;;;;;13.73;5.40;;;24.60;99.90;;;;;;6133873;23;20226;-88
2023/10/02 11:49:04;;;;;;;16.17;5.38;;;24.60;99.90;;;;;;6014490;23;20740;-88
2023/10/02 11:58:29;;;;;;;7.63;4.80;;;25.10;99.90;;;;;;6133581;23;20601;-88
2023/10/02 12:01:57;;;;;;;9.10;4.03;;;25.30;99.90;;;;;;6064559;23;20195;-87
2023/10/02 12:04:38;;;;;;;8.85;4.65;;;24.70;99.90;;;;;;6040340;23;20657;-90
2023/10/02 12:07:52;;;;;;;7.60;4.63;;;24.10;99.90;;;;;;6106869;23;20254;-88
2023/10/02 12:10:20;;;;;;;9.43;4.72;;;23.80;99.90;;;;;;6121495;23;20207;-89
2023/10/02 12:13:08;;;;;;;11.07;4.18;;;23.80;99.90;;;;;;5981484;23;20530;-88
2023/10/02 12:15:46;;;;;;;9.68;4.85;;;24.10;99.90;;;;;;6032640;23;20188;-87
2023/10/02 12:18:58;;;;;;;11.57;5.25;;;24.10;99.90;;;;;;6034527;23;20649;-88
2023/10/02 12:21:33;;;;;;;9.43;4.57;;;24.30;99.90;;;;;;6037200;23;20203;-88
2023/10/02 12:24:48;;;;;;;8.85;4.40;;;24.20;99.90;;;;;;6019170;23;20256;-87
2023/10/02 12:27:41;;;;;;;7.30;3.80;;;24.20;99.90;;;;;;6083778;23;20643;-88
2023/10/02 12:30:53;;;;;;;9.25;4.55;;;24.20;99.90;;;;;;6043674;23;20206;-88
2023/10/02 12:34:09;;;;;;;8.77;4.10;;;24.20;99.90;;;;;;6026119;23;20201;-87
2023/10/02 12:36:51;;;;;;;13.77;5.22;;;24.20;99.90;;;;;;6036802;23;20260;-88
2023/10/02 12:39:42;;;;;;;8.52;4.45;;;23.90;99.90;;;;;;6007957;23;20605;-88
2023/10/02 12:43:08;;;;;;;;;;;;;;;;;;;;;
2023/10/02 12:46:50;;;;;;;8.27;5.00;;;23.90;99.90;;;;;;6103455;23;20214;-87
2023/10/02 12:49:34;;;;;;;9.63;5.32;;;23.50;99.90;;;;;;6003658;23;20182;-89
2023/10/02 12:52:26;;;;;;;11.05;4.68;;;23.60;99.90;;;;;;6097883;23;20508;-89
2023/10/02 12:55:16;;;;;;;8.68;4.82;;;23.70;99.90;;;;;;6078539;23;20159;-87
2023/10/02 12:58:14;;;;;;;8.23;4.03;;;23.80;99.90;;;;;;6080294;23;20195;-88
2023/10/02 13:01:47;;;;;;;7.80;4.22;;;23.60;99.90;;;;;;6136739;23;20267;-87
2023/10/02 13:05:03;;;;;;;5.95;3.72;;;23.50;99.90;;;;;;6145256;23;20631;-87
2023/10/02 13:08:45;;;;;;;10.18;4.13;;;23.50;99.90;;;;;;6096555;23;20249;-89
2023/10/02 13:15:14;;;;;;;10.30;4.50;;;23.00;99.90;;;;;;6058235;23;20694;-88
2023/10/02 13:17:43;;;;;;;6.53;3.60;;;23.00;99.90;;;;;;6089399;23;20170;-87
2023/10/02 13:20:50;;;;;;;10.75;4.95;;;22.90;99.90;;;;;;6119344;23;20596;-87
2023/10/02 13:23:35;;;;;;;7.63;4.38;;;23.00;99.90;;;;;;6135198;23;20638;-88
2023/10/02 13:26:29;;;;;;;9.15;4.80;;;22.90;99.90;;;;;;6133988;23;20649;-88
2023/10/02 13:29:07;;;;;;;7.32;4.35;;;22.90;99.90;;;;;;6146422;23;20647;-86
2023/10/02 13:31:33;;;;;;;7.03;3.83;;;22.70;99.90;;;;;;6172071;23;20191;-83
2023/10/02 13:34:07;;;;;;;11.70;3.88;;;22.50;99.90;;;;;;6134734;23;20194;-84
2023/10/02 13:36:37;;;;;;;6.85;3.95;;;22.40;99.90;;;;;;6147547;23;20265;-87
2023/10/02 13:39:39;;;;;;;9.63;4.47;;;22.50;99.90;;;;;;6172847;23;20202;-86
2023/10/02 13:43:02;;;;;;;;;;;;;;;;;;;;;
2023/10/02 13:46:17;;;;;;;;;;;;;;;;;;;;;
2023/10/02 13:49:06;;;;;;;5.13;3.50;;;22.70;99.90;;;;;;6136303;23;20210;-85
2023/10/02 13:52:03;;;;;;;8.82;4.88;;;22.60;99.90;;;;;;6149671;23;20201;-86
2023/10/02 13:54:38;;;;;;;9.15;5.00;;;22.60;99.90;;;;;;6148734;23;20407;-86
2023/10/02 13:57:07;;;;;;;8.75;5.35;;;22.50;99.90;;;;;;6156434;23;20190;-87
2023/10/02 13:59:36;;;;;;;15.68;6.03;;;22.60;99.90;;;;;;6172644;23;20959;-86
2023/10/02 14:02:04;;;;;;;13.70;6.05;;;22.70;99.90;;;;;;6146331;23;20265;-86
2023/10/02 14:04:47;;;;;;;13.57;6.32;;;22.80;99.90;;;;;;6150833;23;20190;-87
2023/10/02 14:07:20;;;;;;;12.63;5.63;;;22.80;99.90;;;;;;6126486;23;20194;-88
2023/10/02 14:09:46;;;;;;;11.82;6.25;;;22.90;99.90;;;;;;6147216;23;20206;-86
2023/10/02 14:12:17;;;;;;;11.68;6.43;;;22.70;99.90;;;;;;6111043;23;20583;-88
2023/10/02 14:14:49;;;;;;;14.32;5.72;;;22.50;99.90;;;;;;6111897;23;20167;-88
2023/10/02 14:17:20;;;;;;;9.77;5.63;;;22.20;99.90;;;;;;6146875;23;20150;-86
2023/10/02 14:19:51;;;;;;;13.57;6.43;;;22.20;99.90;;;;;;6144961;23;20198;-87
2023/10/02 14:22:21;;;;;;;13.43;6.15;;;22.20;99.90;;;;;;6172076;23;20642;-87
2023/10/02 14:24:46;;;;;;;9.63;5.65;;;22.30;99.90;;;;;;6121606;23;20258;-86
2023/10/02 14:27:22;;;;;;;12.57;5.50;;;22.20;99.90;;;;;;6120863;23;20242;-86
2023/10/02 14:29:54;;;;;;;9.38;5.53;;;22.30;99.90;;;;;;6145239;23;20509;-86
2023/10/02 14:32:23;;;;;;;9.68;4.82;;;22.30;99.90;;;;;;6149156;23;20150;-86
2023/10/02 14:34:55;;;;;;;13.10;6.70;;;22.20;99.90;;;;;;6133567;23;20194;-86
2023/10/02 14:37:23;;;;;;;7.90;5.18;;;22.10;99.90;;;;;;6156934;23;20256;-88
2023/10/02 14:40:09;;;;;;;11.10;4.90;;;22.10;99.90;;;;;;6132957;23;20195;-86
2023/10/02 14:42:52;;;;;;;11.25;5.20;;;22.00;99.90;;;;;;6130159;23;20216;-88
2023/10/02 14:46:26;;;;;;;17.38;5.65;;;22.00;99.90;;;;;;6121491;23;20208;-89
2023/10/02 14:52:44;;;;;;;8.75;5.10;;;21.90;99.90;;;;;;6105662;23;20270;-87
2023/10/02 14:55:56;;;;;;;9.48;5.10;;;21.80;99.90;;;;;;6127143;23;20301;-88
2023/10/02 14:58:31;;;;;;;7.88;5.07;;;21.70;99.90;;;;;;6059915;23;20213;-88
2023/10/02 15:01:11;;;;;;;13.80;5.63;;;21.60;99.90;;;;;;6106327;23;20159;-89
2023/10/02 15:03:59;;;;;;;10.25;6.10;;;21.50;99.90;;;;;;6112881;23;20400;-88
2023/10/02 15:06:37;;;;;;;8.68;5.10;;;21.40;99.90;;;;;;6113565;23;20196;-88
2023/10/02 15:09:22;;;;;;;9.93;5.70;;;21.40;99.90;;;;;;6104654;23;20220;-89
2023/10/02 15:12:07;;;;;;;11.63;5.00;;;21.50;99.90;;;;;;6129173;23;20153;-89
2023/10/02 15:53:46;;;;;;;7.43;4.97;;;21.70;99.90;;;;;;6120104;23;20204;-92
2023/10/02 15:56:15;;;;;;;13.02;5.22;;;21.50;99.90;;;;;;6095616;23;20192;-94
2023/10/02 15:58:45;;;;;;;7.97;4.50;;;21.40;99.90;;;;;;6071807;23;20200;-93
2023/10/02 16:01:18;;;;;;;10.50;4.85;;;21.50;99.90;;;;;;6064421;23;20203;-93
2023/10/02 16:03:47;;;;;;;10.70;4.53;;;21.40;99.90;;;;;;6041711;23;20256;-92
2023/10/02 16:06:18;;;;;;;9.20;3.73;;;21.30;99.90;;;;;;6067512;23;20222;-92
2023/10/02 16:08:53;;;;;;;8.05;4.07;;;21.10;99.90;;;;;;6089862;23;20149;-92
2023/10/02 16:11:21;;;;;;;8.32;4.90;;;21.10;99.90;;;;;;6097152;23;20155;-93
2023/10/02 16:13:48;;;;;;;7.38;4.35;;;21.00;99.90;;;;;;6089222;23;20228;-92
2023/10/02 16:16:14;;;;;;;9.23;4.60;;;21.00;99.90;;;;;;6076148;23;20200;-92
2023/10/02 16:18:40;;;;;;;13.27;5.43;;;21.00;99.90;;;;;;6064846;23;20193;-90
2023/10/02 16:21:12;;;;;;;8.80;3.30;;;21.00;99.90;;;;;;6066873;23;21190;-93
2023/10/02 16:23:43;;;;;;;7.37;4.40;;;20.80;99.90;;;;;;6067821;23;20166;-93
2023/10/02 16:26:13;;;;;;;8.73;4.20;;;20.70;99.90;;;;;;6094467;23;20312;-92
2023/10/02 16:28:42;;;;;;;8.83;4.20;;;20.70;99.90;;;;;;6094284;23;20192;-93
2023/10/02 16:31:24;;;;;;;6.45;3.40;;;20.60;99.90;;;;;;6075293;23;20192;-93
2023/10/02 16:33:51;;;;;;;10.93;4.38;;;20.50;99.90;;;;;;6087404;23;20197;-92
2023/10/02 16:36:24;;;;;;;9.87;4.30;;;20.50;99.90;;;;;;6090964;23;20202;-93
2023/10/02 16:38:54;;;;;;;10.07;4.90;;;20.50;99.90;;;;;;6115468;23;20168;-93
2023/10/02 16:41:21;;;;;;;11.33;4.80;;;20.60;99.90;;;;;;6072271;23;20161;-93
2023/10/02 16:43:49;;;;;;;10.25;4.13;;;20.60;99.90;;;;;;6089677;23;20529;-92
2023/10/02 16:46:17;;;;;;;6.93;4.77;;;20.50;99.90;;;;;;6075197;23;20886;-92
2023/10/02 16:48:46;;;;;;;10.80;5.07;;;20.50;99.90;;;;;;6066652;23;20196;-92
2023/10/02 16:51:15;;;;;;;10.67;4.50;;;20.50;99.90;;;;;;6090757;23;20196;-91
2023/10/02 16:53:44;;;;;;;11.40;4.83;;;20.50;99.90;;;;;;6115312;23;20168;-93
2023/10/02 16:56:13;;;;;;;6.93;5.13;;;20.50;99.90;;;;;;6090297;23;20208;-91
2023/10/02 16:58:57;;;;;;;6.67;4.60;;;20.50;99.90;;;;;;6093692;23;20201;-92
2023/10/02 17:01:23;;;;;;;9.93;4.80;;;20.50;99.90;;;;;;6093030;23;20242;-91
2023/10/02 17:03:53;;;;;;;9.40;5.23;;;20.50;99.90;;;;;;6093632;23;20283;-92
2023/10/02 17:06:22;;;;;;;9.77;5.00;;;20.50;99.90;;;;;;6094054;23;20196;-91
2023/10/02 17:08:49;;;;;;;11.47;5.00;;;20.50;99.90;;;;;;6092325;23;20176;-92
2023/10/02 17:11:16;;;;;;;11.53;5.03;;;20.40;99.90;;;;;;6095503;23;20156;-93
2023/10/02 17:13:48;;;;;;;12.57;4.90;;;20.40;99.90;;;;;;6093659;23;20199;-94
2023/10/02 17:21:29;;;;;;;8.70;4.80;;;20.10;99.90;;;;;;6150438;23;20187;-94
2023/10/02 17:23:56;;;;;;;10.77;4.77;;;20.00;99.90;;;;;;6126912;23;20167;-93
2023/10/02 17:26:22;;;;;;;7.37;6.00;;;19.90;99.90;;;;;;6125357;23;20594;-93
2023/10/02 17:28:50;;;;;;;11.00;5.37;;;19.90;99.90;;;;;;6124727;23;20207;-91
2023/10/02 17:31:16;;;;;;;6.33;4.87;;;19.80;99.90;;;;;;6101763;23;20179;-92
2023/10/02 17:33:42;;;;;;;15.37;6.83;;;19.80;99.90;;;;;;6078149;23;20297;-91
2023/10/02 17:36:09;;;;;;;12.17;6.13;;;19.70;99.90;;;;;;6124058;23;20163;-94
2023/10/02 17:38:41;;;;;;;8.43;4.37;;;19.60;99.90;;;;;;6122871;23;20155;-95
2023/10/02 17:41:11;;;;;;;9.97;5.17;;;19.60;99.90;;;;;;6124314;23;20153;-91
2023/10/02 17:43:37;;;;;;;9.43;5.13;;;19.60;99.90;;;;;;6125553;23;20174;-94
2023/10/02 17:46:06;;;;;;;9.47;5.67;;;19.50;99.90;;;;;;6100546;23;21022;-94
2023/10/02 17:48:32;;;;;;;8.87;5.53;;;19.40;99.90;;;;;;6101177;23;20163;-93
2023/10/02 17:51:03;;;;;;;7.67;5.63;;;19.40;99.90;;;;;;6100975;23;20187;-93
2023/10/02 17:53:29;;;;;;;13.07;6.10;;;19.30;99.90;;;;;;6123829;23;20528;-94
2023/10/02 17:55:55;;;;;;;12.93;6.00;;;19.30;99.90;;;;;;6124812;23;20151;-94
2023/10/02 17:58:21;;;;;;;11.60;5.37;;;19.20;99.90;;;;;;6125188;23;20242;-92
2023/10/02 18:00:50;;;;;;;7.67;5.10;;;19.30;99.90;;;;;;6096033;23;20242;-94
2023/10/02 18:03:16;;;;;;;9.17;5.07;;;19.20;99.90;;;;;;6117840;23;20184;-92
2023/10/02 18:05:46;;;;;;;7.40;4.50;;;19.20;99.90;;;;;;6093510;23;20195;-94
2023/10/02 18:08:15;;;;;;;5.77;3.60;;;19.20;99.90;;;;;;6095028;23;20165;-93
2023/10/02 18:10:45;;;;;;;8.00;5.03;;;19.10;99.90;;;;;;6096249;23;20241;-94
2023/10/02 18:13:13;;;;;;;14.87;4.70;;;19.00;99.90;;;;;;6119379;23;20231;-93
2023/10/02 18:15:42;;;;;;;11.97;4.83;;;19.00;99.90;;;;;;6120073;23;20167;-93
2023/10/02 18:18:07;;;;;;;12.77;6.13;;;19.00;99.90;;;;;;6095665;23;20188;-95
2023/10/02 18:20:38;;;;;;;10.97;5.43;;;19.00;99.90;;;;;;6070357;23;20175;-93
2023/10/02 18:23:04;;;;;;;10.63;5.43;;;19.00;99.90;;;;;;6095323;23;21041;-93
2023/10/02 18:49:05;;;;;;;10.83;6.13;;;18.20;99.90;;;;;;6096570;23;20302;-87
2023/10/02 18:51:31;;;;;;;11.93;5.57;;;18.20;99.90;;;;;;6060216;23;20262;-87
2023/10/02 18:54:06;;;;;;;12.70;4.27;;;18.10;99.90;;;;;;6080404;23;20629;-87
2023/10/02 18:56:35;;;;;;;8.20;4.37;;;18.00;99.90;;;;;;6110837;23;20160;-87
2023/10/02 18:59:04;;;;;;;6.23;4.30;;;18.00;99.90;;;;;;6083335;23;20286;-86
2023/10/02 19:01:31;;;;;;;10.67;5.27;;;18.00;99.90;;;;;;6111106;23;20605;-87
2023/10/02 19:04:00;;;;;;;15.20;5.50;;;17.90;99.90;;;;;;6103095;23;20211;-87
2023/10/02 19:06:26;;;;;;;8.40;5.60;;;17.90;99.90;;;;;;6110439;23;20239;-86
2023/10/02 19:08:53;;;;;;;10.70;5.20;;;17.90;99.90;;;;;;6077941;23;20198;-85
2023/10/02 19:11:21;;;;;;;9.20;5.87;;;17.90;99.90;;;;;;6108772;23;20168;-86
2023/10/02 19:13:47;;;;;;;10.60;6.27;;;17.80;99.90;;;;;;6110842;23;20358;-86
2023/10/02 19:16:15;;;;;;;13.13;7.63;;;17.80;99.90;;;;;;6083224;23;20208;-83
2023/10/02 19:18:41;;;;;;;11.20;5.37;;;17.80;99.90;;;;;;6082137;23;20660;-86
2023/10/02 19:21:07;;;;;;;10.77;6.30;;;17.90;99.90;;;;;;6085548;23;20227;-84
2023/10/02 19:23:36;;;;;;;11.10;7.57;;;17.80;99.90;;;;;;6082380;23;20168;-86
2023/10/02 19:26:02;;;;;;;10.90;5.47;;;17.80;99.90;;;;;;6086995;23;20164;-86
2023/10/02 19:28:31;;;;;;;9.57;5.63;;;17.80;99.90;;;;;;6086368;23;20375;-85
2023/10/02 19:30:58;;;;;;;14.50;4.73;;;17.80;99.90;;;;;;6063162;23;20227;-86